Time;durP1;ratioP1;P1;durP2;ratioP2;P2;SDS_P1;SDS_P2;PMS_P1;PMS_P2;Temp;Humidity;BMP_temperature;BMP_pressure;BME280_temperature;BME280_humidity;BME280_pressure;Samples;Min_cycle;Max_cycle;Signal;HPM_P1;HPM_P2
2022/02/10 00:06:38;;;;;;;5.97;5.37;;;5.80;77.30;;;;;;6251790;28;20432;-66
2022/02/10 00:20:05;;;;;;;6.30;4.93;;;5.60;79.50;;;;;;6217307;28;20472;-67
2022/02/10 00:23:22;;;;;;;6.13;5.13;;;5.60;79.00;;;;;;6227140;28;20572;-64
2022/02/10 00:36:36;;;;;;;6.77;6.17;;;5.30;80.60;;;;;;6252506;28;20471;-65
2022/02/10 00:43:11;;;;;;;6.33;5.13;;;5.30;81.20;;;;;;6239859;28;20483;-66
2022/02/10 00:46:14;;;;;;;7.07;6.37;;;5.30;81.20;;;;;;6251551;28;20841;-66
2022/02/10 00:49:17;;;;;;;6.30;5.70;;;5.30;81.30;;;;;;6252278;28;20478;-69
2022/02/10 00:52:21;;;;;;;6.27;5.20;;;5.30;81.30;;;;;;6266889;28;20470;-66
2022/02/10 00:55:28;;;;;;;7.53;5.23;;;5.30;81.60;;;;;;6275591;28;20474;-67
2022/02/10 00:58:32;;;;;;;5.40;4.23;;;5.40;82.00;;;;;;6276568;28;20469;-65
2022/02/10 01:12:14;;;;;;;6.80;4.80;;;5.10;82.80;;;;;;6225729;28;20492;-67
2022/02/10 01:32:05;;;;;;;6.17;4.83;;;4.80;84.60;;;;;;6226203;28;20488;-66
2022/02/10 01:35:12;;;;;;;8.63;4.80;;;4.80;85.20;;;;;;6226166;28;20472;-67
2022/02/10 01:38:15;;;;;;;4.97;4.17;;;4.80;85.30;;;;;;6225423;28;20847;-67
2022/02/10 01:58:09;;;;;;;5.83;4.97;;;4.80;87.00;;;;;;6246973;28;20974;-65
2022/02/10 02:04:33;;;;;;;5.20;4.70;;;4.70;86.90;;;;;;6245450;28;20483;-66
2022/02/10 02:07:37;;;;;;;6.53;4.63;;;4.70;86.80;;;;;;6248987;28;20471;-63
2022/02/10 02:10:41;;;;;;;6.77;3.90;;;4.70;86.60;;;;;;6246266;28;20951;-63
2022/02/10 02:13:45;;;;;;;7.07;4.60;;;4.60;86.70;;;;;;6247930;28;20894;-64
2022/02/10 02:16:50;;;;;;;4.63;4.17;;;4.60;86.70;;;;;;6249782;28;20467;-65
2022/02/10 02:19:53;;;;;;;6.43;4.87;;;4.50;86.60;;;;;;6253814;28;20467;-65
2022/02/10 02:22:57;;;;;;;5.43;4.17;;;4.40;87.10;;;;;;6253935;28;20541;-62
2022/02/10 02:26:06;;;;;;;5.33;3.77;;;4.40;87.70;;;;;;6253977;28;20475;-62
2022/02/10 02:29:12;;;;;;;4.17;3.77;;;4.30;88.00;;;;;;6252963;28;20466;-62
2022/02/10 02:32:21;;;;;;;5.13;4.63;;;4.30;89.70;;;;;;6229850;28;20487;-62
2022/02/10 02:35:37;;;;;;;4.30;3.90;;;4.30;89.20;;;;;;6229168;28;20472;-64
2022/02/10 02:39:00;;;;;;;10.00;3.60;;;4.20;89.50;;;;;;6230271;28;20478;-64
2022/02/10 03:05:57;;;;;;;5.67;3.90;;;4.20;90.80;;;;;;6178943;28;20474;-63
2022/02/10 03:09:08;;;;;;;3.47;2.93;;;4.10;90.80;;;;;;6228178;28;20460;-64
2022/02/10 03:12:13;;;;;;;4.47;3.50;;;4.20;90.80;;;;;;6228001;28;20479;-65
2022/02/10 03:15:23;;;;;;;3.33;3.03;;;4.20;90.80;;;;;;6228632;28;20448;-65
2022/02/10 03:18:38;;;;;;;4.13;3.77;;;4.20;90.80;;;;;;6227872;28;20479;-65
2022/02/10 03:21:58;;;;;;;3.73;3.27;;;4.10;90.80;;;;;;6227884;28;20492;-65
2022/02/10 04:05:49;;;;;;;3.37;3.10;;;4.10;91.70;;;;;;6152203;29;20482;-65
2022/02/10 04:12:42;;;;;;;3.93;3.60;;;4.10;91.80;;;;;;6224617;28;20806;-65
2022/02/10 04:15:51;;;;;;;4.30;3.87;;;4.10;91.80;;;;;;6226442;28;20814;-65
2022/02/10 04:22:21;;;;;;;5.10;3.07;;;4.00;91.70;;;;;;6217553;28;20468;-64
2022/02/10 04:25:40;;;;;;;5.20;3.57;;;4.00;91.80;;;;;;6226168;28;20980;-64
2022/02/10 04:29:17;;;;;;;3.30;2.67;;;3.90;91.70;;;;;;6226228;28;20487;-65
2022/02/10 04:56:20;;;;;;;4.50;4.10;;;3.70;92.10;;;;;;6270594;28;20805;-66
2022/02/10 04:59:45;;;;;;;3.97;3.63;;;3.70;92.10;;;;;;6270742;28;20463;-66
2022/02/10 05:20:05;;;;;;;7.77;5.17;;;3.50;93.00;;;;;;6308445;28;20537;-65
2022/02/10 05:23:22;;;;;;;8.70;5.13;;;3.40;92.90;;;;;;6296744;28;20476;-65
2022/02/10 05:33:19;;;;;;;10.13;6.83;;;3.30;93.40;;;;;;6271345;28;20967;-66
2022/02/10 05:36:28;;;;;;;6.23;5.20;;;3.20;93.40;;;;;;6271605;28;20474;-66
2022/02/10 05:39:34;;;;;;;4.93;4.43;;;3.30;93.60;;;;;;6274041;28;20470;-66
2022/02/10 05:43:18;;;;;;;6.97;4.57;;;3.20;93.60;;;;;;6274683;28;20481;-65
2022/02/10 05:46:26;;;;;;;7.47;4.40;;;3.30;93.70;;;;;;6247016;28;20965;-65
2022/02/10 05:49:58;;;;;;;4.77;4.13;;;3.30;93.70;;;;;;6247194;28;20540;-66
2022/02/10 05:53:25;;;;;;;6.90;4.57;;;3.20;93.70;;;;;;6245923;28;20497;-65
2022/02/10 05:56:38;;;;;;;5.30;4.90;;;3.30;93.80;;;;;;6245983;28;20494;-66
2022/02/10 06:53:44;;;;;;;7.93;5.97;;;3.50;94.20;;;;;;6277548;28;20477;-65
2022/02/10 07:07:53;;;;;;;10.00;6.90;;;3.70;94.00;;;;;;6237438;28;20472;-66
2022/02/10 07:11:19;;;;;;;8.70;6.40;;;3.80;93.90;;;;;;6262731;28;20458;-65
2022/02/10 07:48:24;;;;;;;11.00;6.30;;;4.70;92.90;;;;;;6246026;28;20486;-65
2022/02/10 07:51:58;;;;;;;10.87;6.30;;;4.80;92.70;;;;;;6245559;28;20474;-64
2022/02/10 07:55:36;;;;;;;5.73;5.23;;;4.90;92.50;;;;;;6245211;28;20483;-65
2022/02/10 08:56:10;;;;;;;8.97;6.20;;;7.10;87.70;;;;;;6253349;28;20467;-65
2022/02/10 08:59:45;;;;;;;9.73;6.13;;;7.30;87.40;;;;;;6253438;28;20480;-66
2022/02/10 09:06:18;;;;;;;16.00;6.00;;;7.60;86.40;;;;;;6253156;28;20455;-66
2022/02/10 09:13:13;;;;;;;10.27;5.83;;;8.00;85.90;;;;;;6239877;28;20480;-69
2022/02/10 09:16:48;;;;;;;10.13;6.70;;;8.20;85.50;;;;;;6252449;28;20955;-68
2022/02/10 09:56:56;;;;;;;6.90;5.90;;;19.00;51.30;;;;;;6251320;28;20958;-71
2022/02/10 10:00:13;;;;;;;8.40;6.13;;;23.00;43.30;;;;;;6251505;28;20244;-69
2022/02/10 10:03:21;;;;;;;7.07;6.20;;;26.20;36.60;;;;;;6251318;28;20237;-70
2022/02/10 10:06:44;;;;;;;7.37;6.73;;;28.80;31.50;;;;;;6252436;28;20235;-68
2022/02/10 10:09:59;;;;;;;6.03;5.20;;;31.20;27.90;;;;;;6251496;28;20243;-68
2022/02/10 10:13:32;;;;;;;9.25;6.10;;;33.20;25.10;;;;;;6251373;28;20611;-69
2022/02/10 10:16:55;;;;;;;6.03;5.53;;;34.50;22.80;;;;;;6251671;28;20228;-70
2022/02/10 10:20:10;;;;;;;6.47;5.78;;;35.70;21.70;;;;;;6251704;28;20234;-70
2022/02/10 10:23:36;;;;;;;7.55;6.65;;;36.80;20.50;;;;;;6246575;28;20243;-71
2022/02/10 10:27:15;;;;;;;8.35;6.80;;;37.40;20.00;;;;;;6251424;28;20250;-70
2022/02/10 10:50:39;;;;;;;9.18;7.57;;;40.60;16.10;;;;;;6249986;28;20236;-70
2022/02/10 10:53:49;;;;;;;9.40;7.38;;;40.90;16.20;;;;;;6250229;28;20232;-71
2022/02/10 10:56:57;;;;;;;7.30;6.55;;;41.60;15.80;;;;;;6250460;28;20231;-70
2022/02/10 11:37:41;;;;;;;7.18;6.50;;;41.30;15.40;;;;;;6249363;28;20243;-70
2022/02/10 11:41:22;;;;;;;7.78;7.18;;;41.50;15.00;;;;;;6249514;28;20244;-70
2022/02/10 11:44:50;;;;;;;7.85;7.25;;;41.10;15.30;;;;;;6256251;28;20240;-69
2022/02/10 12:34:01;;;;;;;7.38;6.68;;;42.90;14.00;;;;;;6253706;28;20232;-66
2022/02/10 12:42:03;;;;;;;6.70;5.97;;;43.20;14.00;;;;;;6217780;28;20262;-67
2022/02/10 13:36:22;;;;;;;10.20;7.03;;;40.00;14.60;;;;;;6164339;28;20232;-69
2022/02/10 14:10:09;;;;;;;9.60;8.60;;;36.00;16.40;;;;;;6249140;28;20228;-70
2022/02/10 14:13:18;;;;;;;8.48;7.47;;;34.90;16.90;;;;;;6249947;28;20794;-69
2022/02/10 14:16:36;;;;;;;9.52;7.80;;;33.60;17.90;;;;;;6249097;28;20235;-71
2022/02/10 14:19:46;;;;;;;8.77;7.97;;;31.10;19.20;;;;;;6249881;28;20243;-71
2022/02/10 14:23:04;;;;;;;8.07;7.30;;;28.60;21.10;;;;;;6249361;28;20243;-69
2022/02/10 14:26:22;;;;;;;8.97;8.10;;;26.40;23.00;;;;;;6263283;28;20223;-69
2022/02/10 14:29:25;;;;;;;10.30;7.83;;;24.20;25.30;;;;;;6252066;28;20217;-68
2022/02/10 14:32:33;;;;;;;7.47;6.53;;;22.50;27.00;;;;;;6248835;28;20599;-68
2022/02/10 14:35:48;;;;;;;10.13;6.80;;;21.30;28.30;;;;;;6249023;28;20220;-68
2022/02/10 14:39:15;;;;;;;8.47;7.67;;;20.30;29.60;;;;;;6248877;28;20235;-66
2022/02/10 15:50:26;;;;;;;13.10;7.97;;;14.00;42.40;;;;;;6340250;27;20765;-66
2022/02/10 16:17:11;;;;;;;18.07;9.90;;;13.20;45.50;;;;;;6339491;27;20476;-67
2022/02/10 16:20:18;;;;;;;15.77;10.27;;;13.10;46.10;;;;;;6334635;28;20471;-65
2022/02/10 16:23:24;;;;;;;20.83;10.50;;;13.00;46.40;;;;;;6337566;28;20610;-65
2022/02/10 16:26:39;;;;;;;25.17;9.53;;;12.90;46.80;;;;;;6337401;28;20480;-65
2022/02/10 16:29:42;;;;;;;18.03;9.60;;;12.80;47.10;;;;;;6309497;28;20482;-65
2022/02/10 16:32:45;;;;;;;22.37;9.17;;;12.70;47.40;;;;;;6300987;28;20488;-65
2022/02/10 16:35:53;;;;;;;20.17;8.47;;;12.70;47.90;;;;;;6300678;28;21114;-65
2022/02/10 16:39:01;;;;;;;20.33;9.13;;;12.60;48.00;;;;;;6302756;28;20952;-65
2022/02/10 16:42:13;;;;;;;18.33;10.07;;;12.50;48.50;;;;;;6303414;28;20994;-67
2022/02/10 16:45:21;;;;;;;18.50;8.60;;;12.40;48.80;;;;;;6289994;28;20441;-65
2022/02/10 16:48:33;;;;;;;21.57;9.77;;;12.30;49.40;;;;;;6322494;28;20455;-65
2022/02/10 16:51:44;;;;;;;13.87;7.97;;;12.20;49.60;;;;;;6304520;28;20461;-66
2022/02/10 16:54:51;;;;;;;18.23;9.53;;;12.20;49.90;;;;;;6304630;28;20500;-65
2022/02/10 16:58:12;;;;;;;12.40;8.60;;;12.10;50.40;;;;;;6308246;28;20483;-65
2022/02/10 17:01:40;;;;;;;11.30;8.63;;;12.00;50.80;;;;;;6306168;28;20487;-66
2022/02/10 17:19:07;;;;;;;10.70;8.73;;;11.40;53.00;;;;;;6291224;28;20479;-65
2022/02/10 17:25:35;;;;;;;10.83;7.50;;;11.20;53.90;;;;;;6247009;28;20491;-65
2022/02/10 17:28:40;;;;;;;10.20;8.70;;;11.10;54.10;;;;;;6250046;28;20494;-66
2022/02/10 17:32:04;;;;;;;12.70;9.30;;;10.90;54.50;;;;;;6248371;28;20485;-66
2022/02/10 17:35:22;;;;;;;15.53;9.87;;;10.80;55.10;;;;;;6250210;28;20474;-67
2022/02/10 17:42:10;;;;;;;12.07;8.30;;;10.50;56.20;;;;;;6249406;28;20479;-67
2022/02/10 17:45:27;;;;;;;10.33;9.07;;;10.40;56.50;;;;;;6260512;28;20467;-63
2022/02/10 17:52:05;;;;;;;12.23;9.50;;;10.20;57.30;;;;;;6255351;28;20487;-64
2022/02/10 17:55:10;;;;;;;12.30;9.43;;;10.10;57.80;;;;;;6274425;28;20469;-64
2022/02/10 17:58:13;;;;;;;19.00;10.20;;;10.00;58.20;;;;;;6273321;28;20477;-66
2022/02/10 18:01:17;;;;;;;10.97;8.90;;;9.90;59.50;;;;;;6274617;28;20983;-64
2022/02/10 18:04:23;;;;;;;12.63;10.13;;;9.90;59.70;;;;;;6274031;28;20470;-65
2022/02/10 18:07:26;;;;;;;17.93;9.30;;;9.80;60.00;;;;;;6274527;28;20960;-65
2022/02/10 18:13:58;;;;;;;11.83;9.33;;;9.70;60.70;;;;;;6259263;28;20469;-68
2022/02/10 18:17:09;;;;;;;16.10;9.70;;;9.60;61.30;;;;;;6272275;28;20481;-63
2022/02/10 18:20:17;;;;;;;11.30;8.90;;;9.50;61.60;;;;;;6273147;28;20480;-62
2022/02/10 18:23:25;;;;;;;12.17;9.90;;;9.50;61.90;;;;;;6256891;28;21162;-62
2022/02/10 18:26:44;;;;;;;13.87;9.90;;;9.30;62.40;;;;;;6273507;28;20481;-63
2022/02/10 18:30:13;;;;;;;16.17;12.20;;;9.20;62.90;;;;;;6256197;28;21043;-64
2022/02/10 18:33:29;;;;;;;14.70;11.13;;;9.10;63.50;;;;;;6257532;28;20473;-63
2022/02/10 19:07:05;;;;;;;13.63;12.17;;;8.50;68.50;;;;;;6273337;28;20480;-65
2022/02/10 19:10:14;;;;;;;14.80;11.40;;;8.40;68.80;;;;;;6273443;28;20510;-65
2022/02/10 19:13:19;;;;;;;14.37;11.80;;;8.40;69.30;;;;;;6271283;28;20476;-65
2022/02/10 19:16:23;;;;;;;16.70;13.83;;;8.30;69.50;;;;;;6271813;28;20530;-64
2022/02/10 19:19:27;;;;;;;18.33;11.47;;;8.30;70.10;;;;;;6272745;28;20559;-65
2022/02/10 19:22:30;;;;;;;19.10;13.67;;;8.20;71.60;;;;;;6273268;28;20484;-65
2022/02/10 19:25:37;;;;;;;17.30;11.93;;;8.10;71.00;;;;;;6271097;28;20480;-64
2022/02/10 19:28:40;;;;;;;15.17;12.10;;;8.10;71.30;;;;;;6270367;28;20464;-65
2022/02/10 19:31:45;;;;;;;17.47;13.17;;;8.10;71.90;;;;;;6269903;28;20491;-66
2022/02/10 19:34:50;;;;;;;19.73;11.80;;;8.00;72.00;;;;;;6270230;28;20964;-65
2022/02/10 19:38:00;;;;;;;14.33;12.10;;;8.00;72.20;;;;;;6273553;28;20476;-66
2022/02/10 19:41:05;;;;;;;16.57;12.10;;;8.00;72.80;;;;;;6272155;28;20485;-67
2022/02/10 19:44:28;;;;;;;14.60;11.50;;;7.80;73.40;;;;;;6259625;28;20483;-65
2022/02/10 19:47:33;;;;;;;11.13;9.97;;;7.80;73.40;;;;;;6255321;28;20476;-67
2022/02/10 19:50:37;;;;;;;17.43;12.23;;;7.80;73.40;;;;;;6272098;28;20467;-66
2022/02/10 19:53:40;;;;;;;12.33;10.73;;;7.70;74.20;;;;;;6270464;28;20489;-65
2022/02/10 19:56:45;;;;;;;16.50;11.90;;;7.60;75.00;;;;;;6268815;28;20947;-64
2022/02/10 19:59:53;;;;;;;12.47;11.03;;;7.60;75.20;;;;;;6272689;28;20520;-64
2022/02/10 20:02:56;;;;;;;14.90;11.87;;;7.50;76.10;;;;;;6280764;28;20471;-64
2022/02/10 20:06:02;;;;;;;16.40;12.47;;;7.40;76.90;;;;;;6279426;28;20478;-64
2022/02/10 20:09:06;;;;;;;15.77;12.80;;;7.40;77.40;;;;;;6276217;28;20790;-67
2022/02/10 20:12:11;;;;;;;14.93;12.67;;;7.40;78.20;;;;;;6270586;28;20680;-68
2022/02/10 20:15:16;;;;;;;15.23;12.40;;;7.30;78.20;;;;;;6268668;28;20453;-67
2022/02/10 20:18:20;;;;;;;11.10;10.00;;;7.20;78.50;;;;;;6276573;28;20794;-67
2022/02/10 20:21:23;;;;;;;15.47;11.63;;;7.20;79.40;;;;;;6259189;28;20479;-66
2022/02/10 20:24:27;;;;;;;18.33;12.23;;;7.20;79.60;;;;;;6275558;28;20573;-67
2022/02/10 20:27:31;;;;;;;11.60;10.40;;;7.20;80.20;;;;;;6276353;28;20465;-67
2022/02/10 20:30:34;;;;;;;17.03;12.07;;;7.10;80.10;;;;;;6275774;28;20477;-66
2022/02/10 20:33:38;;;;;;;14.90;10.80;;;7.10;80.30;;;;;;6275912;28;20474;-63
2022/02/10 20:36:41;;;;;;;17.33;11.23;;;7.10;80.80;;;;;;6276005;28;20466;-67
2022/02/10 20:39:44;;;;;;;14.03;11.40;;;7.10;80.80;;;;;;6276579;28;20482;-66
2022/02/10 20:42:49;;;;;;;14.00;11.00;;;7.00;81.30;;;;;;6276410;28;20478;-67
2022/02/10 20:45:57;;;;;;;15.37;11.90;;;6.90;81.90;;;;;;6281445;28;20468;-66
2022/02/10 20:49:02;;;;;;;17.30;12.37;;;6.80;82.50;;;;;;6283350;28;20470;-66
2022/02/10 20:52:06;;;;;;;14.53;11.43;;;6.90;82.90;;;;;;6279446;28;20474;-67
2022/02/10 20:55:09;;;;;;;13.43;11.53;;;6.80;82.80;;;;;;6276797;28;20491;-67
2022/02/10 20:58:18;;;;;;;14.07;11.87;;;6.80;83.30;;;;;;6263958;28;20814;-66
2022/02/10 21:01:22;;;;;;;16.63;11.33;;;6.80;83.30;;;;;;6275168;28;20498;-62
2022/02/10 21:04:29;;;;;;;17.20;12.70;;;6.70;83.40;;;;;;6282567;28;20481;-63
2022/02/10 21:07:38;;;;;;;14.63;12.27;;;6.60;83.40;;;;;;6275464;28;20467;-63
2022/02/10 21:10:42;;;;;;;17.47;14.17;;;6.60;83.90;;;;;;6276520;28;20982;-63
2022/02/10 21:13:46;;;;;;;14.37;12.00;;;6.50;84.30;;;;;;6274027;28;20536;-63
2022/02/10 21:16:49;;;;;;;17.03;11.37;;;6.50;85.00;;;;;;6276122;28;20471;-67
2022/02/10 21:19:58;;;;;;;25.03;13.00;;;6.50;85.30;;;;;;6275680;28;20813;-66
2022/02/10 21:23:08;;;;;;;17.47;12.87;;;6.50;86.30;;;;;;6273077;28;20498;-64
2022/02/10 21:26:13;;;;;;;14.87;12.47;;;6.40;85.70;;;;;;6276178;28;20513;-67
2022/02/10 21:29:21;;;;;;;16.83;13.23;;;6.40;85.80;;;;;;6274649;28;20479;-67
2022/02/10 21:32:25;;;;;;;17.07;13.30;;;6.40;85.90;;;;;;6272092;28;20487;-67
2022/02/10 21:35:38;;;;;;;17.67;12.47;;;6.40;86.10;;;;;;6273548;28;20467;-64
2022/02/10 21:38:45;;;;;;;15.63;12.40;;;6.30;86.60;;;;;;6258771;28;20806;-62
2022/02/10 21:55:46;;;;;;;19.20;11.80;;;6.10;88.50;;;;;;6274239;28;20494;-66
2022/02/10 22:19:03;;;;;;;15.07;10.80;;;5.90;90.60;;;;;;6273285;28;20490;-65
2022/02/10 22:22:11;;;;;;;14.10;11.00;;;5.80;90.80;;;;;;6270525;28;20478;-67
2022/02/10 22:25:15;;;;;;;13.60;10.70;;;5.80;90.80;;;;;;6274483;28;20462;-68
2022/02/10 22:28:31;;;;;;;12.63;11.00;;;5.80;90.80;;;;;;6273866;28;20481;-68
2022/02/10 22:31:52;;;;;;;12.77;9.53;;;5.80;90.80;;;;;;6274667;28;20498;-67
2022/02/10 22:35:00;;;;;;;11.67;10.47;;;5.70;90.80;;;;;;6273535;28;20545;-64
2022/02/10 22:38:03;;;;;;;12.00;9.57;;;5.70;91.00;;;;;;6272632;28;20826;-66
2022/02/10 22:41:10;;;;;;;14.37;10.70;;;5.70;91.00;;;;;;6272149;28;20799;-67
2022/02/10 22:44:14;;;;;;;18.00;11.07;;;5.60;91.20;;;;;;6271968;28;20470;-65
2022/02/10 22:47:18;;;;;;;15.33;10.87;;;5.50;91.30;;;;;;6269850;28;20816;-69
2022/02/10 22:50:22;;;;;;;13.07;11.23;;;5.50;91.40;;;;;;6272678;28;20458;-63
2022/02/10 22:53:26;;;;;;;13.23;10.10;;;5.40;91.40;;;;;;6266643;28;20958;-63
2022/02/10 22:56:30;;;;;;;11.17;9.90;;;5.40;91.50;;;;;;6272041;28;20485;-63
2022/02/10 22:59:34;;;;;;;12.30;10.00;;;5.30;91.60;;;;;;6272662;28;20482;-63
2022/02/10 23:02:37;;;;;;;12.40;9.63;;;5.30;91.90;;;;;;6274736;28;20891;-63
2022/02/10 23:05:42;;;;;;;11.03;8.57;;;5.20;92.00;;;;;;6270498;28;20475;-63
2022/02/10 23:08:45;;;;;;;9.80;8.70;;;5.20;92.20;;;;;;6264371;28;20486;-62
2022/02/10 23:11:49;;;;;;;13.53;10.00;;;5.10;92.40;;;;;;6274572;28;20978;-62
2022/02/10 23:14:52;;;;;;;13.47;10.47;;;5.10;92.50;;;;;;6272802;28;20477;-64
2022/02/10 23:17:55;;;;;;;12.67;11.30;;;5.10;92.70;;;;;;6271669;28;20472;-64
2022/02/10 23:21:01;;;;;;;14.50;10.60;;;5.10;92.70;;;;;;6272367;28;20478;-63
2022/02/10 23:24:05;;;;;;;20.53;11.30;;;5.10;92.70;;;;;;6271041;28;20509;-63
2022/02/10 23:27:08;;;;;;;16.97;10.43;;;5.10;92.70;;;;;;6271640;28;20470;-63
2022/02/10 23:30:11;;;;;;;10.73;9.53;;;5.10;92.70;;;;;;6262033;28;20482;-63
2022/02/10 23:33:19;;;;;;;14.57;10.13;;;5.10;92.70;;;;;;6264553;28;20470;-64
2022/02/10 23:39:45;;;;;;;13.13;10.20;;;5.00;92.80;;;;;;6273898;28;20466;-63
2022/02/10 23:42:54;;;;;;;12.83;10.20;;;5.00;92.80;;;;;;6277560;28;20481;-63
2022/02/10 23:45:57;;;;;;;11.90;9.80;;;4.90;93.10;;;;;;6275637;28;20470;-63
2022/02/10 23:49:01;;;;;;;17.00;11.30;;;5.00;93.10;;;;;;6265669;28;20470;-63
2022/02/10 23:52:09;;;;;;;18.33;11.50;;;4.90;92.80;;;;;;6283179;28;20482;-63
2022/02/10 23:55:19;;;;;;;12.50;10.47;;;4.90;92.70;;;;;;6276928;28;20490;-63
2022/02/10 23:58:32;;;;;;;12.00;9.67;;;4.80;92.80;;;;;;6278127;28;20528;-64
